createdAt,value
2018-03-07T00:02:00.247Z,93287.30
2018-03-07T00:07:05.548Z,93292.79
2018-03-07T00:09:34.604Z,93296.33
2018-03-07T00:12:03.659Z,93293.31
2018-03-07T00:14:34.619Z,93295.91
2018-03-07T00:17:03.685Z,93293.24
2018-03-07T00:19:32.727Z,93294.06
2018-03-07T00:22:01.787Z,93296.42
2018-03-07T00:24:30.847Z,93296.98
2018-03-07T00:26:59.919Z,93296.10
2018-03-07T00:29:28.972Z,93302.05
2018-03-07T00:31:58.013Z,93301.73
2018-03-07T00:34:27.064Z,93301.70
2018-03-07T00:36:56.104Z,93307.14
2018-03-07T00:39:26.061Z,93305.44
2018-03-07T00:41:55.102Z,93308.13
2018-03-07T00:44:24.157Z,93306.13
2018-03-07T00:46:53.196Z,93309.58
2018-03-07T00:49:22.244Z,93309.78
2018-03-07T00:51:51.291Z,93308.87
2018-03-07T00:54:20.346Z,93310.31
2018-03-07T00:56:49.390Z,93315.50
2018-03-07T00:59:18.508Z,93317.52
2018-03-07T01:01:47.577Z,93316.72
2018-03-07T01:04:16.631Z,93321.30
2018-03-07T01:06:45.683Z,93313.05
2018-03-07T01:09:14.742Z,93311.44
2018-03-07T01:11:43.777Z,93312.93
2018-03-07T01:14:12.827Z,93311.28
2018-03-07T01:16:41.880Z,93306.52
2018-03-07T01:19:10.931Z,93309.78
2018-03-07T01:21:40.035Z,93312.74
2018-03-07T01:24:09.078Z,93308.94
2018-03-07T01:26:38.136Z,93307.86
2018-03-07T01:29:07.175Z,93306.25
2018-03-07T01:31:36.233Z,93303.77
2018-03-07T01:34:05.276Z,93296.72
2018-03-07T01:36:34.359Z,93302.72
2018-03-07T01:39:03.437Z,93298.04
2018-03-07T01:41:32.475Z,93294.31
2018-03-07T01:44:01.531Z,93296.59
2018-03-07T01:46:30.578Z,93298.23
2018-03-07T01:49:06.615Z,93296.55
2018-03-07T01:54:13.335Z,93303.41
2018-03-07T01:56:42.390Z,93298.59
2018-03-07T01:59:11.436Z,93299.34
2018-03-07T02:01:40.516Z,93301.63
2018-03-07T02:04:09.565Z,93302.67
2018-03-07T02:06:38.611Z,93305.64
2018-03-07T02:09:08.635Z,93297.37
2018-03-07T02:11:37.682Z,93301.34
2018-03-07T02:14:06.738Z,93295.67
2018-03-07T02:16:35.783Z,93298.28
2018-03-07T02:19:04.840Z,93296.80
2018-03-07T02:21:33.888Z,93297.78
2018-03-07T02:24:02.930Z,93297.38
2018-03-07T02:26:31.978Z,93293.31
2018-03-07T02:29:01.020Z,93291.72
2018-03-07T02:31:30.059Z,93293.55
2018-03-07T02:36:35.131Z,93283.58
2018-03-07T02:39:04.183Z,93287.13
2018-03-07T02:41:33.236Z,93290.25
2018-03-07T02:44:02.283Z,93291.65
2018-03-07T02:46:31.358Z,93299.70
2018-03-07T02:49:00.391Z,93302.73
2018-03-07T02:51:40.888Z,93303.67
2018-03-07T02:54:13.212Z,93304.56
2018-03-07T02:56:42.254Z,93302.13
2018-03-07T02:59:11.308Z,93298.76
2018-03-07T03:01:40.356Z,93301.49
2018-03-07T03:04:09.414Z,93302.76
2018-03-07T03:06:38.462Z,93304.20
2018-03-07T03:09:07.511Z,93308.23
2018-03-07T03:11:36.559Z,93303.84
2018-03-07T03:14:05.599Z,93305.63
2018-03-07T03:16:34.651Z,93300.13
2018-03-07T03:19:03.729Z,93303.13
2018-03-07T03:21:32.756Z,93301.55
2018-03-07T03:24:01.809Z,93311.38
2018-03-07T03:26:30.851Z,93312.29
2018-03-07T03:28:59.897Z,93316.61
2018-03-07T03:31:28.948Z,93315.98
2018-03-07T03:34:07.607Z,93319.19
2018-03-07T03:36:36.647Z,93314.66
2018-03-07T03:39:06.576Z,93318.33
2018-03-07T03:41:35.629Z,93316.43
2018-03-07T03:44:07.892Z,93319.66
2018-03-07T03:46:36.938Z,93313.05
2018-03-07T03:51:42.254Z,93319.28
2018-03-07T03:54:11.358Z,93322.53
2018-03-07T03:56:40.374Z,93323.86
2018-03-07T03:59:09.422Z,93323.45
2018-03-07T04:01:38.469Z,93331.42
2018-03-07T04:04:09.427Z,93332.20
2018-03-07T04:06:38.470Z,93334.31
2018-03-07T04:11:42.769Z,93339.58
2018-03-07T04:14:11.824Z,93340.72
2018-03-07T04:16:40.875Z,93340.37
2018-03-07T04:19:09.918Z,93343.36
2018-03-07T04:21:39.033Z,93347.27
2018-03-07T04:24:08.070Z,93354.77
2018-03-07T04:26:37.114Z,93348.03
2018-03-07T04:29:06.854Z,93358.61
2018-03-07T04:31:35.891Z,93359.07
2018-03-07T04:34:04.927Z,93366.84
2018-03-07T04:36:33.997Z,93369.37
2018-03-07T04:39:03.919Z,93370.30
2018-03-07T04:41:32.975Z,93369.88
2018-03-07T04:44:02.014Z,93370.84
2018-03-07T04:46:31.103Z,93373.72
2018-03-07T04:49:00.156Z,93378.70
2018-03-07T04:51:29.192Z,93378.16
2018-03-07T04:53:59.147Z,93372.77
2018-03-07T04:56:28.196Z,93379.55
2018-03-07T04:58:57.253Z,93379.30
2018-03-07T05:01:26.312Z,93377.82
2018-03-07T05:03:55.373Z,93379.73
2018-03-07T05:06:24.420Z,93384.17
2018-03-07T05:08:53.467Z,93386.09
2018-03-07T05:11:22.520Z,93388.51
2018-03-07T05:13:51.538Z,93392.50
2018-03-07T05:16:20.588Z,93394.88
2018-03-07T05:18:49.866Z,93396.84
2018-03-07T05:21:19.479Z,93396.00
2018-03-07T05:23:48.513Z,93396.58
2018-03-07T05:26:20.698Z,93404.73
2018-03-07T05:28:49.743Z,93404.75
2018-03-07T05:31:18.794Z,93404.64
2018-03-07T05:33:47.842Z,93407.28
2018-03-07T05:36:16.912Z,93407.56
2018-03-07T05:38:45.964Z,93408.04
2018-03-07T05:41:14.996Z,93414.89
2018-03-07T05:43:44.091Z,93416.55
2018-03-07T05:46:13.084Z,93420.02
2018-03-07T05:51:17.175Z,93424.40
2018-03-07T05:53:47.124Z,93426.19
2018-03-07T05:56:16.167Z,93426.70
2018-03-07T05:58:45.210Z,93431.30
2018-03-07T06:01:14.400Z,93431.94
2018-03-07T06:03:43.443Z,93435.91
2018-03-07T06:06:12.491Z,93438.75
2018-03-07T06:08:41.725Z,93440.70
2018-03-07T06:11:10.765Z,93439.30
2018-03-07T06:13:39.894Z,93442.08
2018-03-07T06:16:08.937Z,93441.58
2018-03-07T06:18:37.973Z,93447.27
2018-03-07T06:21:07.011Z,93453.80
2018-03-07T06:23:36.960Z,93456.80
2018-03-07T06:26:06.012Z,93455.70
2018-03-07T06:28:35.047Z,93463.37
2018-03-07T06:31:04.093Z,93457.22
2018-03-07T06:33:33.186Z,93465.09
2018-03-07T06:36:02.231Z,93470.48
2018-03-07T06:38:31.267Z,93480.16
2018-03-07T06:41:00.308Z,93483.56
2018-03-07T06:43:29.355Z,93481.14
2018-03-07T06:45:58.400Z,93489.16
2018-03-07T06:48:27.459Z,93490.41
2018-03-07T06:50:56.485Z,93495.19
2018-03-07T06:56:00.770Z,93498.19
2018-03-07T06:58:29.822Z,93501.50
2018-03-07T07:03:34.098Z,93508.11
2018-03-07T07:06:17.595Z,93519.68
2018-03-07T07:08:48.088Z,93517.73
2018-03-07T07:11:17.142Z,93521.27
2018-03-07T07:16:21.448Z,93530.03
2018-03-07T07:18:50.492Z,93538.45
2018-03-07T07:21:19.584Z,93537.24
2018-03-07T07:26:23.886Z,93547.74
2018-03-07T07:28:52.934Z,93550.35
2018-03-07T07:31:21.990Z,93553.52
2018-03-07T07:33:51.023Z,93556.87
2018-03-07T07:36:22.068Z,93548.78
2018-03-07T07:38:51.131Z,93553.80
2018-03-07T07:41:20.163Z,93554.28
2018-03-07T07:43:51.111Z,93561.31
2018-03-07T07:46:22.150Z,93565.57
2018-03-07T07:48:51.220Z,93564.41
2018-03-07T07:51:20.250Z,93571.27
2018-03-07T07:53:49.291Z,93571.38
2018-03-07T07:56:18.347Z,93571.12
2018-03-07T07:58:48.360Z,93571.66
2018-03-07T08:01:17.395Z,93595.50
2018-03-07T08:03:46.443Z,93573.88
2018-03-07T08:08:51.616Z,93582.20
2018-03-07T08:11:21.384Z,93583.39
2018-03-07T08:13:50.444Z,93588.59
2018-03-07T08:16:19.483Z,93591.27
2018-03-07T08:18:51.075Z,93603.22
2018-03-07T08:21:20.111Z,93599.03
2018-03-07T08:26:28.352Z,93608.60
2018-03-07T08:28:57.422Z,93613.09
2018-03-07T08:31:27.481Z,93609.97
2018-03-07T08:33:56.512Z,93607.34
2018-03-07T08:36:25.578Z,93609.98
2018-03-07T08:38:54.625Z,93616.67
2018-03-07T08:43:58.918Z,93623.72
2018-03-07T08:46:27.994Z,93627.77
2018-03-07T08:48:57.023Z,93622.49
2018-03-07T08:51:26.400Z,93621.45
2018-03-07T08:53:55.455Z,93627.05
2018-03-07T08:56:24.488Z,93629.77
2018-03-07T08:58:53.540Z,93628.97
2018-03-07T09:01:22.574Z,93636.20
2018-03-07T09:03:51.634Z,93623.67
2018-03-07T09:06:20.707Z,93627.83
2018-03-07T09:08:50.631Z,93627.73
2018-03-07T09:11:19.705Z,93630.18
2018-03-07T09:13:48.724Z,93628.25
2018-03-07T09:16:17.773Z,93635.54
2018-03-07T09:18:46.824Z,93643.27
2018-03-07T09:21:15.900Z,93641.41
2018-03-07T09:23:44.929Z,93658.89
2018-03-07T09:26:13.982Z,93662.52
2018-03-07T09:28:43.023Z,93669.60
2018-03-07T09:31:12.059Z,93662.17
2018-03-07T09:33:42.555Z,93667.10
2018-03-07T09:38:36.699Z,93677.92
2018-03-07T09:41:05.758Z,93679.70
2018-03-07T09:43:34.831Z,93686.53
2018-03-07T09:46:03.857Z,93683.95
2018-03-07T09:48:32.897Z,93686.73
2018-03-07T09:51:01.967Z,93680.19
2018-03-07T09:53:30.970Z,93682.77
2018-03-07T09:56:01.303Z,93681.33
2018-03-07T09:58:30.350Z,93691.27
2018-03-07T10:00:59.819Z,93685.62
2018-03-07T10:03:28.838Z,93702.48
2018-03-07T10:06:11.912Z,93705.01
2018-03-07T10:08:42.177Z,93704.06
2018-03-07T10:11:11.238Z,93706.34
2018-03-07T10:13:41.150Z,93703.72
2018-03-07T10:16:10.190Z,93706.81
2018-03-07T10:18:39.267Z,93710.92
2018-03-07T10:21:08.302Z,93715.70
2018-03-07T10:23:37.368Z,93717.64
2018-03-07T10:26:07.311Z,93728.78
2018-03-07T10:28:37.299Z,93724.98
2018-03-07T10:31:06.303Z,93717.74
2018-03-07T10:36:10.600Z,93726.94
2018-03-07T10:38:40.589Z,93734.56
2018-03-07T10:41:09.658Z,93729.53
2018-03-07T10:43:38.694Z,93733.69
2018-03-07T10:46:07.735Z,93735.23
2018-03-07T10:48:37.716Z,93739.95
2018-03-07T10:51:06.763Z,93738.02
2018-03-07T10:53:35.799Z,93741.39
2018-03-07T10:56:04.861Z,93732.28
2018-03-07T11:01:11.120Z,93742.37
2018-03-07T11:06:23.713Z,93731.72
2018-03-07T11:08:52.771Z,93736.20
2018-03-07T11:11:21.806Z,93751.57
2018-03-07T11:13:50.874Z,93730.03
2018-03-07T11:16:19.912Z,93722.88
2018-03-07T11:18:48.967Z,93737.14
2018-03-07T11:23:53.304Z,93733.33
2018-03-07T11:26:22.362Z,93735.34
2018-03-07T11:28:52.286Z,93741.87
2018-03-07T11:33:56.541Z,93734.84
2018-03-07T11:36:25.599Z,93722.60
2018-03-07T11:38:56.648Z,93734.26
2018-03-07T11:41:25.699Z,93747.04
2018-03-07T11:46:30.029Z,93750.70
2018-03-07T11:48:59.353Z,93735.05
2018-03-07T11:51:28.402Z,93743.45
2018-03-07T11:53:57.454Z,93734.87
2018-03-07T11:56:26.495Z,93731.80
2018-03-07T11:58:55.891Z,93729.92
2018-03-07T12:01:25.660Z,93745.00
2018-03-07T12:06:30.315Z,93729.49
2018-03-07T12:09:00.434Z,93733.23
2018-03-07T12:11:29.718Z,93736.80
2018-03-07T12:13:58.771Z,93737.37
2018-03-07T12:16:27.850Z,93735.17
2018-03-07T12:18:56.900Z,93741.25
2018-03-07T12:21:25.947Z,93732.01
2018-03-07T12:23:59.463Z,93736.63
2018-03-07T12:26:28.488Z,93748.34
2018-03-07T12:28:57.538Z,93728.45
2018-03-07T12:31:26.580Z,93739.78
2018-03-07T12:33:55.627Z,93742.16
2018-03-07T12:36:24.671Z,93733.48
2018-03-07T12:39:01.951Z,93741.08
2018-03-07T12:41:31.021Z,93736.11
2018-03-07T12:46:36.325Z,93737.41
2018-03-07T12:49:05.371Z,93747.45
2018-03-07T12:51:34.436Z,93742.93
2018-03-07T12:54:03.461Z,93749.70
2018-03-07T12:56:36.000Z,93745.86
2018-03-07T12:59:05.054Z,93743.48
2018-03-07T13:01:34.086Z,93736.42
2018-03-07T13:04:03.161Z,93741.66
2018-03-07T13:09:18.394Z,93754.50
2018-03-07T13:11:47.423Z,93744.98
2018-03-07T13:14:16.486Z,93752.98
2018-03-07T13:16:45.538Z,93762.86
2018-03-07T13:19:14.588Z,93746.09
2018-03-07T13:21:43.656Z,93744.55
2018-03-07T13:24:13.584Z,93756.77
2018-03-07T13:26:42.637Z,93750.50
2018-03-07T13:31:46.867Z,93755.09
2018-03-07T13:34:15.916Z,93763.31
2018-03-07T13:36:45.886Z,93770.81
2018-03-07T13:39:16.827Z,93766.31
2018-03-07T13:41:45.868Z,93762.67
2018-03-07T13:46:51.163Z,93774.16
2018-03-07T13:49:20.229Z,93765.66
2018-03-07T13:51:49.285Z,93771.28
2018-03-07T13:56:55.083Z,93774.19
2018-03-07T13:59:24.129Z,93778.20
2018-03-07T14:01:53.175Z,93781.37
2018-03-07T14:04:22.241Z,93789.65
2018-03-07T14:06:51.299Z,93794.13
2018-03-07T14:09:25.540Z,93785.91
2018-03-07T14:11:54.553Z,93793.89
2018-03-07T14:14:24.022Z,93783.37
2018-03-07T14:16:53.052Z,93788.81
2018-03-07T14:19:22.092Z,93786.84
2018-03-07T14:21:51.126Z,93782.70
2018-03-07T14:24:20.170Z,93796.66
2018-03-07T14:26:49.223Z,93790.02
2018-03-07T14:29:18.311Z,93798.93
2018-03-07T14:31:47.343Z,93806.76
2018-03-07T14:34:16.393Z,93801.41
2018-03-07T14:36:46.358Z,93816.50
2018-03-07T14:39:15.391Z,93817.09
2018-03-07T14:41:44.435Z,93803.66
2018-03-07T14:44:13.481Z,93812.92
2018-03-07T14:46:42.523Z,93807.16
2018-03-07T14:49:11.566Z,93816.02
2018-03-07T14:51:50.277Z,93815.82
2018-03-07T14:54:23.568Z,93813.73
2018-03-07T14:56:58.147Z,93814.69
2018-03-07T14:59:38.528Z,93815.58
2018-03-07T15:02:11.768Z,93821.78
2018-03-07T15:04:44.569Z,93819.50
2018-03-07T15:07:18.535Z,93823.28
2018-03-07T15:09:48.554Z,93824.88
2018-03-07T15:12:17.599Z,93821.98
2018-03-07T15:14:46.652Z,93821.62
2018-03-07T15:17:15.691Z,93831.19
2018-03-07T15:19:44.746Z,93827.01
2018-03-07T15:22:13.808Z,93831.88
2018-03-07T15:24:44.968Z,93834.59
2018-03-07T15:27:14.002Z,93839.26
2018-03-07T15:29:43.045Z,93843.19
2018-03-07T15:32:12.083Z,93842.61
2018-03-07T15:34:41.137Z,93842.87
2018-03-07T15:37:10.166Z,93845.30
2018-03-07T15:39:39.213Z,93841.27
2018-03-07T15:42:08.252Z,93841.47
2018-03-07T15:44:37.304Z,93852.72
2018-03-07T15:47:06.376Z,93848.91
2018-03-07T15:49:35.445Z,93851.02
2018-03-07T15:52:04.452Z,93851.90
2018-03-07T15:54:43.882Z,93858.20
2018-03-07T15:57:12.909Z,93858.50
2018-03-07T15:59:41.966Z,93865.95
2018-03-07T16:02:10.983Z,93861.54
2018-03-07T16:04:40.028Z,93861.95
2018-03-07T16:07:09.079Z,93868.38
2018-03-07T16:09:38.111Z,93864.80
2018-03-07T16:12:07.143Z,93861.84
2018-03-07T16:14:36.191Z,93870.29
2018-03-07T16:17:07.205Z,93877.98
2018-03-07T16:19:36.220Z,93875.08
2018-03-07T16:22:05.260Z,93877.18
2018-03-07T16:24:34.304Z,93882.08
2018-03-07T16:27:04.268Z,93889.88
2018-03-07T16:29:33.310Z,93887.34
2018-03-07T16:32:02.335Z,93898.47
2018-03-07T16:34:31.392Z,93892.86
2018-03-07T16:37:00.422Z,93897.09
2018-03-07T16:39:29.472Z,93894.48
2018-03-07T16:41:58.509Z,93898.56
2018-03-07T16:44:27.579Z,93897.05
2018-03-07T16:46:56.599Z,93902.98
2018-03-07T16:49:28.750Z,93904.39
2018-03-07T16:51:57.807Z,93904.91
2018-03-07T16:54:26.855Z,93908.97
2018-03-07T16:56:56.819Z,93916.51
2018-03-07T17:02:10.535Z,93920.48
2018-03-07T17:04:39.566Z,93928.57
2018-03-07T17:07:08.623Z,93935.64
2018-03-07T17:09:37.684Z,93937.24
2018-03-07T17:12:06.734Z,93940.55
2018-03-07T17:14:35.802Z,93937.27
2018-03-07T17:17:04.861Z,93946.11
2018-03-07T17:19:33.897Z,93949.82
2018-03-07T17:22:02.931Z,93950.73
2018-03-07T17:24:31.994Z,93955.38
2018-03-07T17:27:01.019Z,93953.86
2018-03-07T17:32:06.262Z,93957.23
2018-03-07T17:34:35.328Z,93958.97
2018-03-07T17:37:04.367Z,93967.50
2018-03-07T17:39:33.417Z,93969.56
2018-03-07T17:42:02.461Z,93972.02
2018-03-07T17:44:31.508Z,93975.16
2018-03-07T17:47:00.545Z,93974.09
2018-03-07T17:49:29.596Z,93984.76
2018-03-07T17:51:58.625Z,93985.14
2018-03-07T17:57:03.855Z,93991.38
2018-03-07T17:59:32.895Z,93993.81
2018-03-07T18:02:01.945Z,93993.31
2018-03-07T18:04:30.971Z,93993.92
2018-03-07T18:07:00.043Z,93996.55
2018-03-07T18:09:29.100Z,94000.20
2018-03-07T18:11:58.144Z,93999.12
2018-03-07T18:14:27.200Z,94005.26
2018-03-07T18:16:56.416Z,94005.43
2018-03-07T18:19:25.456Z,94006.70
2018-03-07T18:21:54.739Z,94005.59
2018-03-07T18:24:23.866Z,94009.50
2018-03-07T18:26:52.904Z,94015.91
2018-03-07T18:29:21.949Z,94019.45
2018-03-07T18:31:51.019Z,94018.39
2018-03-07T18:34:20.062Z,94016.63
2018-03-07T18:36:49.126Z,94020.36
2018-03-07T18:39:18.205Z,94027.99
2018-03-07T18:44:25.339Z,94034.70
2018-03-07T18:46:57.524Z,94036.20
2018-03-07T18:49:26.908Z,94042.80
2018-03-07T18:51:59.380Z,94044.27
2018-03-07T18:54:29.322Z,94038.78
2018-03-07T18:56:58.389Z,94047.00
2018-03-07T18:59:27.445Z,94048.95
2018-03-07T19:01:56.483Z,94051.88
2018-03-07T19:04:25.539Z,94052.97
2018-03-07T19:07:07.220Z,94054.37
2018-03-07T19:09:36.420Z,94060.91
2018-03-07T19:12:07.525Z,94062.08
2018-03-07T19:17:12.978Z,94065.00
2018-03-07T19:19:42.022Z,94069.70
2018-03-07T19:22:11.087Z,94073.15
2018-03-07T19:24:40.374Z,94079.86
2018-03-07T19:27:10.412Z,94077.83
2018-03-07T19:29:39.569Z,94080.83
2018-03-07T19:32:08.615Z,94073.31
2018-03-07T19:34:38.587Z,94078.30
2018-03-07T19:37:07.869Z,94079.17
2018-03-07T19:39:37.185Z,94083.69
2018-03-07T19:42:06.933Z,94089.39
2018-03-07T19:44:36.267Z,94087.36
2018-03-07T19:47:05.796Z,94087.92
2018-03-07T19:52:10.141Z,94091.76
2018-03-07T19:57:17.189Z,94098.39
2018-03-07T19:59:46.322Z,94098.81
2018-03-07T20:02:15.463Z,94106.91
2018-03-07T20:04:44.756Z,94111.92
2018-03-07T20:07:14.168Z,94112.20
2018-03-07T20:12:20.131Z,94119.69
2018-03-07T20:14:52.240Z,94119.24
2018-03-07T20:17:21.317Z,94118.05
2018-03-07T20:19:50.607Z,94127.10
2018-03-07T20:22:21.125Z,94128.59
2018-03-07T20:24:50.290Z,94130.39
2018-03-07T20:27:19.868Z,94132.27
2018-03-07T20:32:24.294Z,94132.06
2018-03-07T20:34:53.440Z,94143.30
2018-03-07T20:37:22.505Z,94137.39
2018-03-07T20:39:58.584Z,94144.48
2018-03-07T20:42:27.892Z,94145.82
2018-03-07T20:44:57.597Z,94145.59
2018-03-07T20:47:26.769Z,94141.84
2018-03-07T20:49:55.830Z,94146.21
2018-03-07T20:52:24.960Z,94150.19
2018-03-07T20:54:54.071Z,94154.67
2018-03-07T20:57:23.134Z,94150.05
2018-03-07T20:59:52.186Z,94159.98
2018-03-07T21:02:21.228Z,94168.59
2018-03-07T21:04:50.290Z,94166.61
2018-03-07T21:07:19.340Z,94167.88
2018-03-07T21:09:48.560Z,94178.06
2018-03-07T21:12:17.891Z,94177.44
2018-03-07T21:14:47.137Z,94177.50
2018-03-07T21:17:17.224Z,94190.23
2018-03-07T21:19:46.298Z,94190.06
2018-03-07T21:22:15.347Z,94185.95
2018-03-07T21:24:44.433Z,94198.88
2018-03-07T21:27:13.440Z,94197.34
2018-03-07T21:29:42.528Z,94208.47
2018-03-07T21:32:11.600Z,94205.92
2018-03-07T21:34:40.659Z,94203.67
2018-03-07T21:37:09.806Z,94216.67
2018-03-07T21:39:39.004Z,94214.19
2018-03-07T21:42:08.460Z,94221.20
2018-03-07T21:47:12.824Z,94214.19
2018-03-07T21:49:41.982Z,94215.35
2018-03-07T21:52:11.122Z,94216.06
2018-03-07T21:54:40.193Z,94218.91
2018-03-07T21:57:09.323Z,94217.17
2018-03-07T21:59:38.379Z,94225.03
2018-03-07T22:02:07.458Z,94229.80
2018-03-07T22:04:36.543Z,94235.08
2018-03-07T22:07:05.572Z,94244.61
2018-03-07T22:09:34.618Z,94241.02
2018-03-07T22:12:03.663Z,94240.23
2018-03-07T22:14:32.722Z,94244.63
2018-03-07T22:17:01.748Z,94244.73
2018-03-07T22:19:32.736Z,94251.02
2018-03-07T22:22:01.763Z,94249.19
2018-03-07T22:24:30.850Z,94250.19
2018-03-07T22:26:59.920Z,94249.38
2018-03-07T22:29:28.993Z,94253.36
2018-03-07T22:34:33.245Z,94255.91
2018-03-07T22:37:02.479Z,94259.98
2018-03-07T22:39:31.660Z,94258.05
2018-03-07T22:42:00.825Z,94265.23
2018-03-07T22:44:29.875Z,94261.37
2018-03-07T22:46:59.055Z,94267.50
2018-03-07T22:49:28.644Z,94268.82
2018-03-07T22:54:32.963Z,94282.17
2018-03-07T22:57:02.307Z,94285.92
2018-03-07T22:59:32.254Z,94288.09
2018-03-07T23:04:37.538Z,94294.39
2018-03-07T23:07:06.591Z,94300.52
2018-03-07T23:09:35.635Z,94294.07
2018-03-07T23:12:04.675Z,94295.78
2018-03-07T23:14:33.710Z,94296.52
2018-03-07T23:17:02.742Z,94313.25
2018-03-07T23:19:31.777Z,94313.20
2018-03-07T23:22:00.813Z,94314.21
2018-03-07T23:24:29.851Z,94318.83
2018-03-07T23:26:58.898Z,94313.48
2018-03-07T23:29:27.970Z,94322.66
2018-03-07T23:31:57.028Z,94323.34
2018-03-07T23:34:26.083Z,94326.77
2018-03-07T23:36:55.118Z,94320.46
2018-03-07T23:39:24.172Z,94328.44
2018-03-07T23:41:53.202Z,94334.59
2018-03-07T23:44:22.244Z,94334.62
2018-03-07T23:46:51.287Z,94345.86
2018-03-07T23:49:20.330Z,94349.98
2018-03-07T23:51:49.380Z,94353.56
2018-03-07T23:54:18.431Z,94358.77
2018-03-07T23:56:48.379Z,94348.80
2018-03-07T23:59:17.427Z,94359.66
